Time;durP1;ratioP1;P1;durP2;ratioP2;P2;SDS_P1;SDS_P2;PMS_P1;PMS_P2;Temp;Humidity;BMP_temperature;BMP_pressure;BME280_temperature;BME280_humidity;BME280_pressure;Samples;Min_cycle;Max_cycle;Signal;HPM_P1;HPM_P2
2023/05/09 00:00:49;;;;;;;2.92;1.85;;;;;;;;;;5095192;28;20027;-63
2023/05/09 00:03:14;;;;;;;3.25;1.88;;;;;;;;;;5094725;28;20026;-63
2023/05/09 00:05:40;;;;;;;2.10;1.90;;;;;;;;;;5094808;28;20115;-63
2023/05/09 00:08:06;;;;;;;1.90;1.75;;;;;;;;;;5094689;28;20024;-63
2023/05/09 00:10:32;;;;;;;2.60;2.00;;;;;;;;;;5094637;28;20020;-63
2023/05/09 00:12:58;;;;;;;1.90;1.80;;;;;;;;;;5094555;28;20027;-63
2023/05/09 00:15:24;;;;;;;1.90;1.80;;;;;;;;;;5094738;28;20387;-63
2023/05/09 00:17:50;;;;;;;2.10;1.92;;;;;;;;;;5094818;28;20050;-63
2023/05/09 00:20:16;;;;;;;1.80;1.70;;;;;;;;;;5094508;28;20030;-63
2023/05/09 00:22:41;;;;;;;1.90;1.80;;;;;;;;;;5094628;28;20095;-63
2023/05/09 00:25:08;;;;;;;1.73;1.63;;;;;;;;;;5094625;28;20091;-63
2023/05/09 00:27:34;;;;;;;1.90;1.70;;;;;;;;;;5094565;28;20059;-63
2023/05/09 00:29:59;;;;;;;1.80;1.70;;;;;;;;;;5094555;28;20055;-62
2023/05/09 00:32:25;;;;;;;2.28;1.80;;;;;;;;;;5094551;28;20406;-63
2023/05/09 00:34:51;;;;;;;2.30;2.03;;;;;;;;;;5094335;28;20073;-63
2023/05/09 00:37:18;;;;;;;3.50;1.85;;;;;;;;;;5094163;28;20024;-63
2023/05/09 00:39:44;;;;;;;2.00;1.80;;;;;;;;;;5094003;28;20397;-63
2023/05/09 00:42:10;;;;;;;1.95;1.77;;;;;;;;;;5094243;28;20431;-63
2023/05/09 00:44:36;;;;;;;2.00;1.55;;;;;;;;;;5093928;28;20128;-63
2023/05/09 00:47:01;;;;;;;2.25;1.77;;;;;;;;;;5093952;28;20026;-63
2023/05/09 00:49:27;;;;;;;1.80;1.70;;;;;;;;;;5093857;28;20024;-63
2023/05/09 00:51:54;;;;;;;1.95;1.52;;;;;;;;;;5094166;28;20024;-63
2023/05/09 00:54:20;;;;;;;1.88;1.77;;;;;;;;;;5093200;28;20028;-63
2023/05/09 00:56:45;;;;;;;2.03;1.83;;;;;;;;;;5093725;28;20081;-63
2023/05/09 00:59:11;;;;;;;2.20;2.00;;;;;;;;;;5092485;28;20060;-63
2023/05/09 01:01:36;;;;;;;1.80;1.70;;;;;;;;;;5093931;28;20019;-63
2023/05/09 01:04:02;;;;;;;1.70;1.60;;;;;;;;;;5093707;28;20049;-63
2023/05/09 01:06:56;;;;;;;1.90;1.80;;;;;;;;;;5093579;28;20099;-63
2023/05/09 01:09:36;;;;;;;1.90;1.80;;;;;;;;;;5087695;28;20040;-63
2023/05/09 01:12:14;;;;;;;1.85;1.58;;;;;;;;;;5093540;28;20020;-63
2023/05/09 01:15:07;;;;;;;1.73;1.63;;;;;;;;;;5093535;28;20061;-63
2023/05/09 01:17:56;;;;;;;1.88;1.73;;;;;;;;;;5093498;28;20032;-63
2023/05/09 01:20:33;;;;;;;1.80;1.70;;;;;;;;;;5093424;28;20079;-63
2023/05/09 01:23:37;;;;;;;2.75;1.98;;;;;;;;;;5093426;28;20472;-63
2023/05/09 01:26:05;;;;;;;1.77;1.67;;;;;;;;;;5093231;28;20554;-63
2023/05/09 01:28:51;;;;;;;1.92;1.77;;;;;;;;;;5093496;28;20579;-63
2023/05/09 01:31:18;;;;;;;1.90;1.80;;;;;;;;;;5093138;28;20074;-64
2023/05/09 01:33:47;;;;;;;1.80;1.70;;;;;;;;;;5093072;28;20023;-63
2023/05/09 01:36:16;;;;;;;1.85;1.75;;;;;;;;;;5093175;28;20031;-64
2023/05/09 01:38:43;;;;;;;1.98;1.88;;;;;;;;;;5092764;28;20052;-64
2023/05/09 01:41:11;;;;;;;1.88;1.77;;;;;;;;;;5093534;28;20055;-63
2023/05/09 01:43:37;;;;;;;2.00;1.80;;;;;;;;;;5092929;28;20103;-64
2023/05/09 01:46:04;;;;;;;1.90;1.70;;;;;;;;;;5093224;28;20031;-64
2023/05/09 01:48:30;;;;;;;1.75;1.65;;;;;;;;;;5092852;28;20065;-64
2023/05/09 01:50:57;;;;;;;3.10;2.63;;;;;;;;;;5092709;28;20024;-63
2023/05/09 01:53:24;;;;;;;1.90;1.80;;;;;;;;;;5092764;28;20032;-63
2023/05/09 01:55:51;;;;;;;1.70;1.60;;;;;;;;;;5092674;28;20271;-64
2023/05/09 01:58:19;;;;;;;1.70;1.60;;;;;;;;;;5093019;28;20059;-63
2023/05/09 02:00:46;;;;;;;1.80;1.70;;;;;;;;;;5092691;28;20115;-64
2023/05/09 02:03:12;;;;;;;1.98;1.70;;;;;;;;;;5092625;28;20028;-63
2023/05/09 02:05:39;;;;;;;1.88;1.77;;;;;;;;;;5091822;28;20028;-63
2023/05/09 02:08:07;;;;;;;2.08;1.98;;;;;;;;;;5093119;28;20016;-64
2023/05/09 02:10:34;;;;;;;1.73;1.63;;;;;;;;;;5092538;28;20028;-63
2023/05/09 02:13:00;;;;;;;2.35;1.60;;;;;;;;;;5092581;28;20031;-63
2023/05/09 02:15:28;;;;;;;1.98;1.73;;;;;;;;;;5092678;28;20035;-63
2023/05/09 02:17:53;;;;;;;1.80;1.70;;;;;;;;;;5092538;28;20095;-63
2023/05/09 02:20:19;;;;;;;1.83;1.73;;;;;;;;;;5092438;28;20028;-63
2023/05/09 02:22:45;;;;;;;2.17;2.00;;;;;;;;;;5092475;28;20020;-63
2023/05/09 02:25:14;;;;;;;1.83;1.67;;;;;;;;;;5092733;28;20468;-64
2023/05/09 02:27:43;;;;;;;1.70;1.60;;;;;;;;;;5092400;28;20042;-63
2023/05/09 02:30:13;;;;;;;1.70;1.60;;;;;;;;;;5092736;28;20387;-64
2023/05/09 02:32:39;;;;;;;3.63;1.85;;;;;;;;;;5092632;28;20059;-64
2023/05/09 02:35:08;;;;;;;2.55;1.80;;;;;;;;;;5092440;28;20070;-64
2023/05/09 02:37:35;;;;;;;1.95;1.65;;;;;;;;;;5092335;28;20027;-64
2023/05/09 02:40:00;;;;;;;1.90;1.73;;;;;;;;;;5091949;28;20077;-64
2023/05/09 02:42:28;;;;;;;2.13;1.92;;;;;;;;;;5092522;28;20036;-64
2023/05/09 02:44:54;;;;;;;1.70;1.60;;;;;;;;;;5092184;28;20028;-64
2023/05/09 02:47:21;;;;;;;1.90;1.70;;;;;;;;;;5092519;28;20421;-64
2023/05/09 02:49:46;;;;;;;1.88;1.77;;;;;;;;;;5092218;28;20027;-64
2023/05/09 02:52:12;;;;;;;1.80;1.67;;;;;;;;;;5092450;28;20497;-64
2023/05/09 02:54:38;;;;;;;4.07;1.95;;;;;;;;;;5092068;28;20507;-64
2023/05/09 02:57:04;;;;;;;1.70;1.60;;;;;;;;;;5092115;28;20468;-64
2023/05/09 02:59:29;;;;;;;2.38;1.77;;;;;;;;;;5092036;28;20012;-64
2023/05/09 03:01:55;;;;;;;2.15;1.98;;;;;;;;;;5092122;28;20024;-64
2023/05/09 03:04:21;;;;;;;1.77;1.67;;;;;;;;;;5092039;28;20384;-64
2023/05/09 03:06:47;;;;;;;1.83;1.73;;;;;;;;;;5092328;28;20388;-64
2023/05/09 03:09:12;;;;;;;1.73;1.63;;;;;;;;;;5091992;28;20027;-64
2023/05/09 03:11:38;;;;;;;1.75;1.60;;;;;;;;;;5091981;28;20028;-64
2023/05/09 03:14:04;;;;;;;1.80;1.70;;;;;;;;;;5090647;28;20055;-64
2023/05/09 03:16:30;;;;;;;2.00;1.80;;;;;;;;;;5092540;28;20024;-64
2023/05/09 03:18:55;;;;;;;2.10;1.90;;;;;;;;;;5095652;28;20028;-64
2023/05/09 03:21:21;;;;;;;1.65;1.55;;;;;;;;;;5095877;28;20031;-64
2023/05/09 03:23:46;;;;;;;2.00;1.70;;;;;;;;;;5095892;28;20048;-64
2023/05/09 03:26:12;;;;;;;2.08;1.60;;;;;;;;;;5095798;28;20414;-64
2023/05/09 03:28:38;;;;;;;2.10;1.85;;;;;;;;;;5095775;28;20024;-63
2023/05/09 03:31:04;;;;;;;1.80;1.70;;;;;;;;;;5095508;28;20059;-63
2023/05/09 03:33:30;;;;;;;1.77;1.67;;;;;;;;;;5095385;28;20020;-63
2023/05/09 03:35:55;;;;;;;2.13;2.00;;;;;;;;;;5095238;28;20069;-63
2023/05/09 03:38:24;;;;;;;1.83;1.73;;;;;;;;;;5095065;28;20055;-63
2023/05/09 03:40:50;;;;;;;1.60;1.50;;;;;;;;;;5095261;28;20460;-63
2023/05/09 03:43:15;;;;;;;2.92;2.00;;;;;;;;;;5095518;28;20028;-63
2023/05/09 03:45:41;;;;;;;1.80;1.70;;;;;;;;;;5095474;28;20544;-63
2023/05/09 03:48:08;;;;;;;2.17;1.98;;;;;;;;;;5095405;28;20035;-63
2023/05/09 03:50:37;;;;;;;1.80;1.70;;;;;;;;;;5095107;28;20483;-63
2023/05/09 03:53:03;;;;;;;1.70;1.60;;;;;;;;;;5095008;28;20078;-63
2023/05/09 03:55:29;;;;;;;1.80;1.70;;;;;;;;;;5095202;28;20395;-63
2023/05/09 03:57:55;;;;;;;2.08;1.70;;;;;;;;;;5095177;28;20028;-63
2023/05/09 04:00:21;;;;;;;3.22;1.55;;;;;;;;;;5094876;28;20061;-63
2023/05/09 04:02:47;;;;;;;4.32;1.92;;;;;;;;;;5095118;28;20055;-62
2023/05/09 04:05:13;;;;;;;1.85;1.70;;;;;;;;;;5094725;28;20024;-62
2023/05/09 04:07:39;;;;;;;1.80;1.70;;;;;;;;;;5095043;28;20028;-63
2023/05/09 04:10:05;;;;;;;1.77;1.67;;;;;;;;;;5095058;28;20513;-63
2023/05/09 04:12:31;;;;;;;1.77;1.67;;;;;;;;;;5094577;28;20024;-62
2023/05/09 04:14:56;;;;;;;2.55;1.65;;;;;;;;;;5094479;28;20035;-62
2023/05/09 04:17:21;;;;;;;1.63;1.52;;;;;;;;;;5094627;28;20024;-62
2023/05/09 04:19:47;;;;;;;1.73;1.60;;;;;;;;;;5094400;28;20028;-65
2023/05/09 04:22:13;;;;;;;2.17;1.90;;;;;;;;;;5095075;28;20028;-62
2023/05/09 04:24:38;;;;;;;2.08;1.90;;;;;;;;;;5094705;28;20039;-63
2023/05/09 04:27:04;;;;;;;1.80;1.70;;;;;;;;;;5094607;28;20498;-62
2023/05/09 04:29:29;;;;;;;2.00;1.80;;;;;;;;;;5093763;28;20483;-63
2023/05/09 04:31:55;;;;;;;1.80;1.70;;;;;;;;;;5094523;28;20046;-62
2023/05/09 04:34:20;;;;;;;2.05;1.85;;;;;;;;;;5094032;28;20384;-62
2023/05/09 04:36:46;;;;;;;2.00;1.90;;;;;;;;;;5094444;28;20039;-62
2023/05/09 04:39:11;;;;;;;2.50;1.70;;;;;;;;;;5093977;28;20040;-62
2023/05/09 04:41:37;;;;;;;2.03;1.88;;;;;;;;;;5094357;28;20461;-63
2023/05/09 04:44:02;;;;;;;2.22;1.80;;;;;;;;;;5093996;28;20479;-63
2023/05/09 04:46:28;;;;;;;1.70;1.60;;;;;;;;;;5093929;28;20030;-62
2023/05/09 04:48:54;;;;;;;2.20;2.00;;;;;;;;;;5093834;28;20086;-62
2023/05/09 04:51:20;;;;;;;1.77;1.67;;;;;;;;;;5094201;28;20030;-62
2023/05/09 04:53:45;;;;;;;2.20;2.00;;;;;;;;;;5094104;28;20462;-62
2023/05/09 04:56:11;;;;;;;2.15;1.80;;;;;;;;;;5094003;28;20032;-62
2023/05/09 04:58:39;;;;;;;1.90;1.80;;;;;;;;;;5093659;28;20468;-64
2023/05/09 05:01:05;;;;;;;2.10;1.90;;;;;;;;;;5093708;28;20475;-63
2023/05/09 05:03:31;;;;;;;1.73;1.63;;;;;;;;;;5093625;28;20502;-62
2023/05/09 05:05:57;;;;;;;2.95;2.17;;;;;;;;;;5093817;28;20024;-62
2023/05/09 05:08:23;;;;;;;1.90;1.80;;;;;;;;;;5092658;28;20024;-63
2023/05/09 05:10:48;;;;;;;1.88;1.77;;;;;;;;;;5093818;28;20383;-63
2023/05/09 05:13:14;;;;;;;3.38;1.90;;;;;;;;;;5093674;28;20483;-62
2023/05/09 05:15:40;;;;;;;2.22;1.80;;;;;;;;;;5093686;28;20062;-63
2023/05/09 05:18:06;;;;;;;2.13;2.00;;;;;;;;;;5093326;28;20102;-63
2023/05/09 05:20:34;;;;;;;2.30;1.98;;;;;;;;;;5092137;28;20027;-63
2023/05/09 05:23:00;;;;;;;2.10;1.60;;;;;;;;;;5093264;28;20039;-63
2023/05/09 05:25:26;;;;;;;1.83;1.73;;;;;;;;;;5093215;28;20047;-64
2023/05/09 05:27:51;;;;;;;2.20;2.00;;;;;;;;;;5093127;28;20070;-62
2023/05/09 05:30:17;;;;;;;2.20;2.00;;;;;;;;;;5093177;28;20102;-64
2023/05/09 05:32:43;;;;;;;1.80;1.70;;;;;;;;;;5090761;28;20028;-64
2023/05/09 05:35:12;;;;;;;2.03;1.85;;;;;;;;;;5091795;28;20073;-62
2023/05/09 05:37:39;;;;;;;2.40;2.20;;;;;;;;;;5091591;28;20024;-62
2023/05/09 05:40:07;;;;;;;2.20;2.00;;;;;;;;;;5091758;28;20491;-62
2023/05/09 05:42:35;;;;;;;2.78;1.90;;;;;;;;;;5092802;28;20032;-64
2023/05/09 05:45:03;;;;;;;2.58;1.98;;;;;;;;;;5091258;28;20499;-62
2023/05/09 05:47:36;;;;;;;2.38;2.17;;;;;;;;;;5092751;28;20054;-65
2023/05/09 05:50:05;;;;;;;2.78;2.30;;;;;;;;;;5092647;28;20476;-63
2023/05/09 05:52:31;;;;;;;2.78;2.20;;;;;;;;;;5092448;28;20028;-64
2023/05/09 05:54:57;;;;;;;2.20;2.03;;;;;;;;;;5091417;28;20032;-64
2023/05/09 05:57:22;;;;;;;2.85;2.10;;;;;;;;;;5092860;28;20035;-63
2023/05/09 05:59:49;;;;;;;2.30;2.10;;;;;;;;;;5091962;28;20076;-64
2023/05/09 06:02:18;;;;;;;2.30;2.10;;;;;;;;;;5092821;28;20021;-63
2023/05/09 06:04:43;;;;;;;2.75;1.90;;;;;;;;;;5092422;28;20059;-64
2023/05/09 06:07:15;;;;;;;2.20;1.80;;;;;;;;;;5092633;28;20081;-63
2023/05/09 06:09:41;;;;;;;1.95;1.75;;;;;;;;;;5092461;28;20393;-62
2023/05/09 06:12:06;;;;;;;2.53;2.22;;;;;;;;;;5092625;28;20032;-62
2023/05/09 06:14:32;;;;;;;3.40;2.30;;;;;;;;;;5092273;28;20035;-63
2023/05/09 06:17:00;;;;;;;2.10;1.90;;;;;;;;;;5092355;28;20024;-64
2023/05/09 06:19:26;;;;;;;2.58;2.13;;;;;;;;;;5091087;28;20039;-62
2023/05/09 06:21:52;;;;;;;2.40;2.00;;;;;;;;;;5092400;28;20093;-64
2023/05/09 06:24:18;;;;;;;2.78;2.00;;;;;;;;;;5092498;28;20479;-63
2023/05/09 06:26:43;;;;;;;3.50;2.20;;;;;;;;;;5092197;28;20113;-62
2023/05/09 06:29:09;;;;;;;3.05;2.60;;;;;;;;;;5091008;28;20043;-63
2023/05/09 06:31:37;;;;;;;4.43;2.38;;;;;;;;;;5092651;28;20437;-63
2023/05/09 06:34:06;;;;;;;2.80;2.03;;;;;;;;;;5092577;28;20021;-66
2023/05/09 06:36:32;;;;;;;2.45;2.17;;;;;;;;;;5084713;28;20040;-64
2023/05/09 06:38:58;;;;;;;2.75;2.22;;;;;;;;;;5090518;28;20076;-64
2023/05/09 06:41:24;;;;;;;2.78;2.03;;;;;;;;;;5090623;28;20556;-64
2023/05/09 06:43:51;;;;;;;2.42;1.90;;;;;;;;;;5090498;28;20107;-63
2023/05/09 06:46:16;;;;;;;2.95;2.28;;;;;;;;;;5090528;28;20044;-64
2023/05/09 06:48:42;;;;;;;2.42;2.20;;;;;;;;;;5090573;28;20021;-63
2023/05/09 06:51:08;;;;;;;2.33;1.98;;;;;;;;;;5090858;28;20027;-62
2023/05/09 06:53:33;;;;;;;2.78;2.05;;;;;;;;;;5094822;28;20067;-64
2023/05/09 06:55:59;;;;;;;4.25;2.58;;;;;;;;;;5094360;28;20032;-64
2023/05/09 06:58:26;;;;;;;2.50;2.28;;;;;;;;;;5094449;28;20024;-63
2023/05/09 07:00:52;;;;;;;5.50;2.33;;;;;;;;;;5094693;28;20119;-63
2023/05/09 07:03:17;;;;;;;2.88;2.00;;;;;;;;;;5094712;28;20474;-63
2023/05/09 07:05:43;;;;;;;2.70;2.35;;;;;;;;;;5094181;28;20090;-64
2023/05/09 07:08:08;;;;;;;3.72;2.30;;;;;;;;;;5094253;28;20089;-62
2023/05/09 07:10:34;;;;;;;4.20;2.60;;;;;;;;;;5094190;28;20103;-62
2023/05/09 07:13:00;;;;;;;2.95;2.15;;;;;;;;;;5075586;28;20027;-64
2023/05/09 07:15:26;;;;;;;4.78;2.50;;;;;;;;;;5073713;28;20036;-64
2023/05/09 07:17:51;;;;;;;2.28;2.08;;;;;;;;;;5073578;28;20039;-64
2023/05/09 07:20:17;;;;;;;2.35;2.10;;;;;;;;;;5073559;28;20040;-63
2023/05/09 07:22:43;;;;;;;3.88;2.20;;;;;;;;;;5073944;28;20039;-63
2023/05/09 07:25:09;;;;;;;3.10;2.30;;;;;;;;;;5073564;28;20059;-64
2023/05/09 07:27:35;;;;;;;2.50;2.30;;;;;;;;;;5073409;28;20074;-64
2023/05/09 07:30:03;;;;;;;2.55;2.30;;;;;;;;;;5073346;28;20035;-64
2023/05/09 07:32:28;;;;;;;2.42;1.98;;;;;;;;;;5073171;28;20032;-63
2023/05/09 07:34:54;;;;;;;5.00;2.60;;;;;;;;;;5079674;28;20036;-63
2023/05/09 07:37:19;;;;;;;3.38;2.70;;;;;;;;;;5092494;28;21097;-64
2023/05/09 07:39:48;;;;;;;4.15;2.42;;;;;;;;;;5092285;28;20101;-63
2023/05/09 07:42:14;;;;;;;4.75;2.47;;;;;;;;;;5093092;28;20463;-63
2023/05/09 07:44:40;;;;;;;2.88;2.42;;;;;;;;;;5092457;28;20036;-63
2023/05/09 07:47:07;;;;;;;3.28;2.50;;;;;;;;;;5092610;28;20023;-63
2023/05/09 07:49:33;;;;;;;2.45;2.20;;;;;;;;;;5092399;28;20029;-63
2023/05/09 07:51:59;;;;;;;3.78;2.45;;;;;;;;;;5092357;28;20460;-63
2023/05/09 07:54:25;;;;;;;4.03;2.55;;;;;;;;;;5090466;28;20020;-63
2023/05/09 07:56:50;;;;;;;5.85;2.60;;;;;;;;;;5091805;28;20785;-64
2023/05/09 07:59:17;;;;;;;3.53;2.92;;;;;;;;;;5091647;28;20065;-63
2023/05/09 08:01:42;;;;;;;4.32;3.13;;;;;;;;;;5090545;28;20785;-63
2023/05/09 08:04:08;;;;;;;3.95;2.60;;;;;;;;;;5091656;28;20114;-64
2023/05/09 08:06:35;;;;;;;4.25;2.42;;;;;;;;;;5093450;28;20433;-64
2023/05/09 08:09:00;;;;;;;2.83;2.40;;;;;;;;;;5092892;28;20129;-64
2023/05/09 08:11:26;;;;;;;4.78;2.70;;;;;;;;;;5093012;28;20119;-63
2023/05/09 08:13:53;;;;;;;4.05;2.55;;;;;;;;;;5093159;28;20024;-63
2023/05/09 08:16:18;;;;;;;4.13;2.88;;;;;;;;;;5092261;28;20513;-63
2023/05/09 08:18:44;;;;;;;3.28;2.47;;;;;;;;;;5091228;28;20107;-63
2023/05/09 08:21:10;;;;;;;3.70;2.65;;;;;;;;;;5091690;28;20556;-64
2023/05/09 08:23:36;;;;;;;5.07;2.70;;;;;;;;;;5092757;28;20024;-63
2023/05/09 08:26:01;;;;;;;4.32;2.83;;;;;;;;;;5092688;28;20028;-63
2023/05/09 08:28:29;;;;;;;3.78;2.75;;;;;;;;;;5092966;28;20475;-64
2023/05/09 08:30:56;;;;;;;4.30;2.63;;;;;;;;;;5092785;28;20070;-63
2023/05/09 08:33:21;;;;;;;5.20;2.72;;;;;;;;;;5092599;28;20109;-64
2023/05/09 08:35:53;;;;;;;4.18;2.92;;;;;;;;;;5092671;28;20048;-64
2023/05/09 08:38:19;;;;;;;4.03;2.72;;;;;;;;;;5090627;28;20032;-63
2023/05/09 08:40:45;;;;;;;6.15;2.88;;;;;;;;;;5092641;28;20066;-64
2023/05/09 08:43:11;;;;;;;7.95;2.75;;;;;;;;;;5091447;28;20456;-63
2023/05/09 08:45:45;;;;;;;7.82;2.97;;;;;;;;;;5091753;28;20036;-64
2023/05/09 08:48:11;;;;;;;7.10;2.90;;;;;;;;;;5092474;28;20064;-64
2023/05/09 08:50:39;;;;;;;5.63;2.95;;;;;;;;;;5091734;28;20338;-63
2023/05/09 08:53:05;;;;;;;5.10;2.97;;;;;;;;;;5091606;28;20471;-62
2023/05/09 08:55:31;;;;;;;4.93;2.88;;;;;;;;;;5091904;28;20032;-62
2023/05/09 08:57:57;;;;;;;4.72;3.10;;;;;;;;;;5089178;28;20020;-63
2023/05/09 09:00:24;;;;;;;12.50;3.58;;;;;;;;;;5090448;28;20062;-63
2023/05/09 09:02:51;;;;;;;10.18;4.15;;;;;;;;;;5091535;28;20069;-63
2023/05/09 09:05:17;;;;;;;21.58;4.20;;;;;;;;;;5090897;28;20052;-63
2023/05/09 09:07:44;;;;;;;5.82;3.70;;;;;;;;;;5091751;28;20078;-63
2023/05/09 09:10:11;;;;;;;9.18;3.88;;;;;;;;;;5091197;28;20480;-63
2023/05/09 09:12:37;;;;;;;5.20;3.90;;;;;;;;;;5091433;28;20032;-62
2023/05/09 09:15:04;;;;;;;7.30;3.67;;;;;;;;;;5090977;28;20024;-62
2023/05/09 09:17:31;;;;;;;5.25;3.60;;;;;;;;;;5091403;28;20020;-62
2023/05/09 09:20:01;;;;;;;10.90;3.67;;;;;;;;;;5090984;28;20024;-63
2023/05/09 09:22:33;;;;;;;7.20;3.33;;;;;;;;;;5091407;28;20032;-62
2023/05/09 09:25:00;;;;;;;5.28;3.42;;;;;;;;;;5091038;28;20102;-62
2023/05/09 09:27:26;;;;;;;7.22;3.40;;;;;;;;;;5091170;28;20476;-63
2023/05/09 09:29:52;;;;;;;6.10;3.05;;;;;;;;;;5088150;28;20054;-63
2023/05/09 09:32:18;;;;;;;5.60;3.20;;;;;;;;;;5090918;28;20165;-63
2023/05/09 09:34:48;;;;;;;6.85;3.10;;;;;;;;;;5090869;28;20245;-63
2023/05/09 09:37:20;;;;;;;;;;;;;;;;;;5092000;28;20028;-64
2023/05/09 09:39:55;;;;;;;5.97;3.25;;;;;;;;;;5091209;28;20390;-64
2023/05/09 09:42:22;;;;;;;6.68;3.40;;;;;;;;;;5090385;28;20036;-62
2023/05/09 09:45:12;;;;;;;3.88;3.00;;;;;;;;;;5091249;28;20468;-63
2023/05/09 09:47:38;;;;;;;7.03;3.30;;;;;;;;;;5091385;28;20032;-63
2023/05/09 09:50:14;;;;;;;5.22;3.00;;;;;;;;;;5091008;28;20034;-64
2023/05/09 09:52:50;;;;;;;6.57;3.17;;;;;;;;;;5091086;28;20114;-63
2023/05/09 09:55:20;;;;;;;4.25;3.00;;;;;;;;;;5091311;28;20380;-63
2023/05/09 09:57:47;;;;;;;;;;;;;;;;;;5091695;28;20020;-63
2023/05/09 10:00:23;;;;;;;5.15;3.17;;;;;;;;;;5081007;28;20289;-63
2023/05/09 10:02:51;;;;;;;6.20;3.22;;;;;;;;;;5089540;28;20032;-63
2023/05/09 10:05:30;;;;;;;3.53;2.90;;;;;;;;;;5089418;28;20058;-62
2023/05/09 10:07:59;;;;;;;6.82;2.92;;;;;;;;;;5091207;28;20028;-63
2023/05/09 10:10:27;;;;;;;5.88;3.05;;;;;;;;;;5090775;28;20480;-62
2023/05/09 10:13:01;;;;;;;5.00;3.00;;;;;;;;;;5090828;28;20036;-63
2023/05/09 10:15:29;;;;;;;5.57;3.25;;;;;;;;;;5091183;28;20425;-62
2023/05/09 10:17:56;;;;;;;5.03;2.80;;;;;;;;;;5090905;28;20020;-62
2023/05/09 10:20:24;;;;;;;5.57;3.30;;;;;;;;;;5090648;28;20040;-62
2023/05/09 10:22:54;;;;;;;3.95;2.97;;;;;;;;;;5090434;28;20044;-64
2023/05/09 10:25:21;;;;;;;4.93;2.92;;;;;;;;;;5088970;28;20491;-63
2023/05/09 10:27:48;;;;;;;4.35;2.85;;;;;;;;;;5093924;28;20047;-63
2023/05/09 10:30:27;;;;;;;4.13;3.17;;;;;;;;;;5093549;28;20028;-63
2023/05/09 10:33:06;;;;;;;3.83;2.80;;;;;;;;;;5092335;28;20024;-65
2023/05/09 10:35:36;;;;;;;4.13;2.70;;;;;;;;;;5091564;28;20032;-63
2023/05/09 10:38:03;;;;;;;7.03;3.08;;;;;;;;;;5093488;28;20028;-62
2023/05/09 10:40:31;;;;;;;3.88;3.00;;;;;;;;;;5094531;28;20036;-64
2023/05/09 10:42:57;;;;;;;5.90;3.00;;;;;;;;;;5094725;28;20032;-64
2023/05/09 10:45:22;;;;;;;4.03;2.70;;;;;;;;;;5094568;28;20422;-63
2023/05/09 10:47:55;;;;;;;3.85;2.67;;;;;;;;;;5094641;28;20052;-64
2023/05/09 10:50:21;;;;;;;3.72;2.80;;;;;;;;;;5094704;28;20042;-64
2023/05/09 10:53:13;;;;;;;9.20;3.55;;;;;;;;;;5093940;28;20043;-63
2023/05/09 10:55:54;;;;;;;3.45;2.95;;;;;;;;;;5093213;28;20039;-63
2023/05/09 10:58:27;;;;;;;3.83;3.00;;;;;;;;;;5094354;28;20046;-63
2023/05/09 11:00:57;;;;;;;4.28;3.00;;;;;;;;;;5094345;28;20032;-63
2023/05/09 11:03:24;;;;;;;3.15;2.85;;;;;;;;;;5093229;28;20455;-63
2023/05/09 11:05:55;;;;;;;2.65;2.45;;;;;;;;;;5093482;28;20028;-62
2023/05/09 11:08:22;;;;;;;3.70;2.80;;;;;;;;;;5094194;28;20039;-61
2023/05/09 11:10:48;;;;;;;4.00;2.92;;;;;;;;;;5093747;28;20024;-61
2023/05/09 11:13:18;;;;;;;6.72;3.15;;;;;;;;;;5093624;28;20548;-62
2023/05/09 11:16:03;;;;;;;4.47;2.90;;;;;;;;;;5093663;28;20089;-61
2023/05/09 11:18:33;;;;;;;3.38;2.83;;;;;;;;;;5093163;28;20027;-61
2023/05/09 11:21:07;;;;;;;4.28;3.25;;;;;;;;;;5094113;28;20474;-62
2023/05/09 11:23:33;;;;;;;4.40;2.90;;;;;;;;;;5093952;28;20042;-61
2023/05/09 11:26:06;;;;;;;5.13;2.92;;;;;;;;;;5093860;28;20107;-61
2023/05/09 11:28:35;;;;;;;2.97;2.50;;;;;;;;;;5093742;28;20024;-61
2023/05/09 11:31:11;;;;;;;5.63;2.92;;;;;;;;;;5093999;28;20035;-62
2023/05/09 11:33:37;;;;;;;3.92;2.88;;;;;;;;;;5094059;28;20075;-63
2023/05/09 11:36:30;;;;;;;6.90;2.85;;;;;;;;;;5093671;28;20085;-64
2023/05/09 11:39:07;;;;;;;4.10;2.60;;;;;;;;;;5073067;28;20381;-63
2023/05/09 11:41:45;;;;;;;6.43;2.83;;;;;;;;;;5073220;28;20035;-63
2023/05/09 11:44:17;;;;;;;3.47;2.78;;;;;;;;;;5073555;28;20144;-63
2023/05/09 11:46:44;;;;;;;7.47;2.67;;;;;;;;;;5072988;28;20035;-62
2023/05/09 11:49:11;;;;;;;5.22;2.80;;;;;;;;;;5086929;28;20031;-61
2023/05/09 11:51:37;;;;;;;9.70;3.10;;;;;;;;;;5093116;28;20039;-61
2023/05/09 11:54:04;;;;;;;8.02;2.83;;;;;;;;;;5093174;28;20112;-61
2023/05/09 11:56:30;;;;;;;4.03;2.50;;;;;;;;;;5093007;28;20040;-59
2023/05/09 11:58:57;;;;;;;4.15;2.95;;;;;;;;;;5093126;28;20024;-60
2023/05/09 12:01:23;;;;;;;7.65;2.92;;;;;;;;;;5093132;28;20046;-61
2023/05/09 12:03:49;;;;;;;12.38;2.90;;;;;;;;;;5093112;28;20119;-62
2023/05/09 12:06:17;;;;;;;8.90;2.88;;;;;;;;;;5092574;28;20035;-61
2023/05/09 12:08:44;;;;;;;3.03;2.33;;;;;;;;;;5091339;28;20035;-61
2023/05/09 12:11:10;;;;;;;4.93;2.70;;;;;;;;;;5090838;28;20031;-61
2023/05/09 12:13:47;;;;;;;6.72;2.80;;;;;;;;;;5092851;28;20618;-62
2023/05/09 12:16:13;;;;;;;7.60;2.90;;;;;;;;;;5092873;28;20484;-64
2023/05/09 12:18:50;;;;;;;5.20;3.20;;;;;;;;;;5093023;28;20032;-63
2023/05/09 12:21:17;;;;;;;7.63;3.65;;;;;;;;;;5092419;28;20031;-63
2023/05/09 12:23:43;;;;;;;9.68;3.53;;;;;;;;;;5092452;28;20042;-60
2023/05/09 12:26:12;;;;;;;5.90;3.15;;;;;;;;;;5092638;28;20028;-62
2023/05/09 12:28:38;;;;;;;6.18;3.03;;;;;;;;;;5092512;28;20024;-61
2023/05/09 12:31:05;;;;;;;5.50;2.97;;;;;;;;;;5092566;28;20040;-61
2023/05/09 12:33:31;;;;;;;4.85;2.80;;;;;;;;;;5092789;28;20664;-62
2023/05/09 12:36:09;;;;;;;11.23;3.50;;;;;;;;;;5092382;28;20078;-62
2023/05/09 12:38:35;;;;;;;5.65;2.97;;;;;;;;;;5090559;28;20154;-61
2023/05/09 12:41:09;;;;;;;9.30;3.38;;;;;;;;;;5092433;28;20040;-60
2023/05/09 12:43:38;;;;;;;4.15;2.85;;;;;;;;;;5091144;28;20028;-61
2023/05/09 12:46:04;;;;;;;10.75;3.10;;;;;;;;;;5092224;28;20031;-60
2023/05/09 12:48:36;;;;;;;4.80;3.05;;;;;;;;;;5091127;28;20020;-60
2023/05/09 12:51:06;;;;;;;3.88;3.28;;;;;;;;;;5091998;28;20032;-62
2023/05/09 12:53:37;;;;;;;6.45;3.47;;;;;;;;;;5092283;28;20024;-63
2023/05/09 12:56:12;;;;;;;6.05;3.20;;;;;;;;;;5092012;28;20060;-61
2023/05/09 12:58:38;;;;;;;5.50;3.30;;;;;;;;;;5092498;28;20153;-61
2023/05/09 13:01:04;;;;;;;3.50;2.92;;;;;;;;;;5091835;28;20060;-61
2023/05/09 13:03:36;;;;;;;7.95;2.97;;;;;;;;;;5091463;28;20551;-62
2023/05/09 13:06:11;;;;;;;7.22;3.17;;;;;;;;;;5090796;28;20077;-61
2023/05/09 13:08:37;;;;;;;7.75;3.22;;;;;;;;;;5091828;28;20468;-61
2023/05/09 13:11:04;;;;;;;9.15;2.97;;;;;;;;;;5090714;28;20032;-62
2023/05/09 13:13:30;;;;;;;11.63;3.40;;;;;;;;;;5091821;28;20836;-62
2023/05/09 13:15:56;;;;;;;8.45;3.25;;;;;;;;;;5091688;28;20110;-61
2023/05/09 13:18:23;;;;;;;5.03;3.00;;;;;;;;;;5089737;28;20058;-61
2023/05/09 13:20:50;;;;;;;5.47;2.78;;;;;;;;;;5086158;28;20028;-61
2023/05/09 13:23:16;;;;;;;10.45;3.03;;;;;;;;;;5090187;28;20027;-62
2023/05/09 13:25:41;;;;;;;5.95;2.85;;;;;;;;;;5090840;28;20521;-61
2023/05/09 13:28:07;;;;;;;17.95;3.28;;;;;;;;;;5090394;28;20035;-61
2023/05/09 13:30:33;;;;;;;5.75;2.70;;;;;;;;;;5089272;28;20028;-61
2023/05/09 13:32:59;;;;;;;6.35;2.72;;;;;;;;;;5089938;28;20172;-61
2023/05/09 13:35:24;;;;;;;4.07;2.45;;;;;;;;;;5089525;28;20028;-62
2023/05/09 13:37:50;;;;;;;4.32;2.78;;;;;;;;;;5090651;28;20106;-62
2023/05/09 13:40:16;;;;;;;7.68;2.85;;;;;;;;;;5090882;28;20055;-61
2023/05/09 13:42:42;;;;;;;4.82;2.60;;;;;;;;;;5091537;28;20809;-62
2023/05/09 13:45:08;;;;;;;6.85;2.72;;;;;;;;;;5091199;28;20105;-62
2023/05/09 13:47:33;;;;;;;3.42;2.70;;;;;;;;;;5090015;28;20028;-62
2023/05/09 13:49:59;;;;;;;5.43;2.70;;;;;;;;;;5090651;28;20039;-61
2023/05/09 13:52:24;;;;;;;5.40;2.78;;;;;;;;;;5090929;28;20028;-62
2023/05/09 13:54:51;;;;;;;3.55;2.53;;;;;;;;;;5090632;28;20032;-62
2023/05/09 13:57:16;;;;;;;7.13;2.08;;;;;;;;;;5090758;28;20115;-61
2023/05/09 13:59:42;;;;;;;5.40;2.88;;;;;;;;;;5090915;28;20143;-61
2023/05/09 14:02:09;;;;;;;4.13;2.25;;;;;;;;;;5090486;28;20063;-61
2023/05/09 14:04:35;;;;;;;4.40;2.33;;;;;;;;;;5091192;28;20028;-62
2023/05/09 14:07:00;;;;;;;2.97;2.30;;;;;;;;;;5091173;28;20036;-62
2023/05/09 14:09:27;;;;;;;2.83;2.28;;;;;;;;;;5090883;28;20123;-61
2023/05/09 14:11:53;;;;;;;4.07;2.50;;;;;;;;;;5090636;28;20039;-62
2023/05/09 14:14:20;;;;;;;3.58;2.42;;;;;;;;;;5089573;28;20174;-60
2023/05/09 14:16:45;;;;;;;5.35;2.30;;;;;;;;;;5090722;28;20484;-61
2023/05/09 14:19:11;;;;;;;2.85;2.05;;;;;;;;;;5090864;28;20043;-61
2023/05/09 14:21:37;;;;;;;6.10;2.40;;;;;;;;;;5091181;28;20024;-60
2023/05/09 14:24:03;;;;;;;19.30;3.03;;;;;;;;;;5090777;28;20024;-61
2023/05/09 14:26:29;;;;;;;12.93;3.00;;;;;;;;;;5083715;28;20028;-63
2023/05/09 14:28:54;;;;;;;10.50;2.40;;;;;;;;;;5070587;28;20033;-60
2023/05/09 14:31:20;;;;;;;7.57;2.90;;;;;;;;;;5071026;28;20078;-62
2023/05/09 14:33:45;;;;;;;8.68;2.42;;;;;;;;;;5070541;28;20426;-61
2023/05/09 14:36:11;;;;;;;6.10;2.40;;;;;;;;;;5070441;28;20036;-62
2023/05/09 14:38:37;;;;;;;15.95;3.05;;;;;;;;;;5070315;28;20066;-62
2023/05/09 14:41:03;;;;;;;17.67;2.78;;;;;;;;;;5070389;28;20078;-62
2023/05/09 14:43:29;;;;;;;11.85;2.67;;;;;;;;;;5070464;28;20032;-62
2023/05/09 14:45:56;;;;;;;4.63;2.58;;;;;;;;;;5070509;28;20086;-62